マドリード/バラハス の空港の天気 - METARとTAF

マドリード・バラハス国際空港 ( LEMD / MAD ) - スペイン マドリード
飛行場実況気象(Metar)
観測時間01/23 06:30 CET (01/23 05:30 UTC)
風向・風速北 2m/s
視程10km以上
天気現象
なし
気温0℃
湿度100%
気圧1028hPa
METARLEMD 230530Z 35003KT CAVOK M00/M00 Q1028 NOSIG
過去の天気等 Google飛行場航空写真 Wunderground天気予報

過去48時間のMETAR

飛行場予報(TAF)
発表時間: 1/23 06:00 CET (1/23 05:00 UTC)
予報対象時間: 23日7時 CET ~ 24日13時 CET
風向・風速不定 2m/s
視程10km以上
なし
23日7時 CET ~ 23日10時 CET に一時的に
風向・風速北北東 3m/s
23日7時 CET ~ 23日9時 CET に 確率 30% で一時的に
視程3,000m
天気現象もや
全天の4割程度の雲 雲底高度 150m
TAF LEMD 230500Z 2306/2412 VRB03KT CAVOK TX17/2315Z TN00/2307Z
TEMPO 2306/2309 02006KT
PROB30 TEMPO 2306/2308 3000 BR SCT005